Time;durP1;ratioP1;P1;durP2;ratioP2;P2;SDS_P1;SDS_P2;PMS_P1;PMS_P2;Temp;Humidity;BMP_temperature;BMP_pressure;BME280_temperature;BME280_humidity;BME280_pressure;Samples;Min_cycle;Max_cycle;Signal;HPM_P1;HPM_P2
2022/09/20 00:01:11;;;;;;;6.78;1.90;;;;;;;;;;5080413;28;20272;-14
2022/09/20 00:03:39;;;;;;;7.50;1.88;;;;;;;;;;5081790;28;20229;-14
2022/09/20 00:06:07;;;;;;;6.65;2.00;;;;;;;;;;5070734;28;20238;-14
2022/09/20 00:08:35;;;;;;;6.93;1.77;;;;;;;;;;5070688;28;20283;-14
2022/09/20 00:11:05;;;;;;;4.93;1.58;;;;;;;;;;5085801;28;20229;-14
2022/09/20 00:13:32;;;;;;;7.20;1.90;;;;;;;;;;5090861;28;20746;-14
2022/09/20 00:16:00;;;;;;;6.82;1.77;;;;;;;;;;5090145;28;20313;-14
2022/09/20 00:18:27;;;;;;;4.85;1.77;;;;;;;;;;5090844;28;20221;-14
2022/09/20 00:20:54;;;;;;;7.93;1.65;;;;;;;;;;5083884;28;20291;-14
2022/09/20 00:23:22;;;;;;;8.10;1.58;;;;;;;;;;5079236;28;20677;-14
2022/09/20 00:25:54;;;;;;;9.02;1.65;;;;;;;;;;5090641;28;20276;-14
2022/09/20 00:28:23;;;;;;;7.95;1.77;;;;;;;;;;5090939;28;20711;-14
2022/09/20 00:30:50;;;;;;;5.53;1.48;;;;;;;;;;5090426;28;20233;-14
2022/09/20 00:33:18;;;;;;;6.45;1.73;;;;;;;;;;5074441;28;20238;-14
2022/09/20 00:35:44;;;;;;;6.50;1.90;;;;;;;;;;5073824;28;20259;-14
2022/09/20 00:38:12;;;;;;;9.45;1.75;;;;;;;;;;5074183;28;20234;-14
2022/09/20 00:40:40;;;;;;;8.40;1.80;;;;;;;;;;5073338;28;20283;-14
2022/09/20 00:43:07;;;;;;;3.70;1.30;;;;;;;;;;5073464;28;20318;-14
2022/09/20 00:45:36;;;;;;;6.28;1.45;;;;;;;;;;5077799;28;20771;-14
2022/09/20 00:48:04;;;;;;;5.13;1.70;;;;;;;;;;5094624;28;20235;-14
2022/09/20 00:50:33;;;;;;;4.40;1.20;;;;;;;;;;5094078;28;20217;-14
2022/09/20 00:53:02;;;;;;;7.00;1.58;;;;;;;;;;5093949;28;20266;-14
2022/09/20 00:55:29;;;;;;;6.35;1.92;;;;;;;;;;5073558;28;20230;-14
2022/09/20 00:57:57;;;;;;;4.05;1.48;;;;;;;;;;5073538;28;20303;-14
2022/09/20 01:00:24;;;;;;;6.05;1.73;;;;;;;;;;5075936;28;20233;-14
2022/09/20 01:02:53;;;;;;;6.93;1.50;;;;;;;;;;5093455;28;20259;-14
2022/09/20 01:05:21;;;;;;;4.32;1.55;;;;;;;;;;5082257;28;20872;-14
2022/09/20 01:07:48;;;;;;;3.33;1.27;;;;;;;;;;5073128;28;20229;-14
2022/09/20 01:10:15;;;;;;;4.93;1.45;;;;;;;;;;5073496;28;20757;-14
2022/09/20 01:12:44;;;;;;;3.53;1.70;;;;;;;;;;5073116;28;20233;-14
2022/09/20 01:15:13;;;;;;;5.45;1.90;;;;;;;;;;5073002;28;21217;-14
2022/09/20 01:17:41;;;;;;;5.95;1.58;;;;;;;;;;5073503;28;20209;-14
2022/09/20 01:20:11;;;;;;;5.68;1.20;;;;;;;;;;5073174;28;20310;-14
2022/09/20 01:22:41;;;;;;;4.68;1.60;;;;;;;;;;5072325;28;20272;-14
2022/09/20 01:25:09;;;;;;;4.32;1.40;;;;;;;;;;5072989;28;20272;-14
2022/09/20 01:27:40;;;;;;;5.68;1.17;;;;;;;;;;5084749;28;20244;-14
2022/09/20 01:30:08;;;;;;;5.95;1.35;;;;;;;;;;5088378;28;20278;-14
2022/09/20 01:32:41;;;;;;;3.47;1.55;;;;;;;;;;5083256;28;20319;-14
2022/09/20 01:35:10;;;;;;;2.35;1.00;;;;;;;;;;5082873;28;20237;-14
2022/09/20 01:37:39;;;;;;;2.88;1.20;;;;;;;;;;5072057;28;20298;-14
2022/09/20 01:40:09;;;;;;;3.60;1.40;;;;;;;;;;5072486;28;20237;-14
2022/09/20 01:42:37;;;;;;;3.10;1.20;;;;;;;;;;5083757;28;20232;-14
2022/09/20 01:45:09;;;;;;;4.18;1.35;;;;;;;;;;5092887;28;20228;-14
2022/09/20 01:47:38;;;;;;;3.70;1.23;;;;;;;;;;5092875;28;21330;-14
2022/09/20 01:50:07;;;;;;;5.78;1.20;;;;;;;;;;5092794;28;20233;-14
2022/09/20 01:53:02;;;;;;;4.05;1.33;;;;;;;;;;5089775;28;20221;-14
2022/09/20 01:55:37;;;;;;;3.13;1.48;;;;;;;;;;5033669;28;20236;-14
2022/09/20 01:58:22;;;;;;;6.60;1.50;;;;;;;;;;5092645;28;20286;-14
2022/09/20 02:00:58;;;;;;;3.53;1.50;;;;;;;;;;5092588;28;20413;-14
2022/09/20 02:03:40;;;;;;;3.05;1.20;;;;;;;;;;5089076;28;20235;-14
2022/09/20 02:06:10;;;;;;;1.33;0.93;;;;;;;;;;5072314;28;20802;-14
2022/09/20 02:08:40;;;;;;;3.15;1.20;;;;;;;;;;5072408;28;20291;-14
2022/09/20 02:11:11;;;;;;;5.95;1.70;;;;;;;;;;5072352;28;20296;-14
2022/09/20 02:13:43;;;;;;;4.82;1.23;;;;;;;;;;5072161;28;20222;-14
2022/09/20 02:16:22;;;;;;;6.60;1.40;;;;;;;;;;5081322;28;20241;-14
2022/09/20 02:18:57;;;;;;;4.45;1.40;;;;;;;;;;5092542;28;21149;-14
2022/09/20 02:21:27;;;;;;;3.25;1.55;;;;;;;;;;5102794;22;20303;-17
2022/09/20 02:23:56;;;;;;;2.45;1.05;;;;;;;;;;5084218;28;20228;-17
2022/09/20 02:26:28;;;;;;;3.13;1.27;;;;;;;;;;5080827;28;20226;-17
2022/09/20 02:28:56;;;;;;;4.10;1.30;;;;;;;;;;5089771;28;20228;-17
2022/09/20 02:31:31;;;;;;;3.08;1.20;;;;;;;;;;5091542;28;20229;-17
2022/09/20 02:34:04;;;;;;;3.53;1.35;;;;;;;;;;5091198;28;20262;-17
2022/09/20 02:36:35;;;;;;;3.25;1.05;;;;;;;;;;5088845;28;20237;-17
2022/09/20 02:39:06;;;;;;;5.45;1.13;;;;;;;;;;5089616;28;20309;-17
2022/09/20 02:41:41;;;;;;;2.75;1.17;;;;;;;;;;5090659;28;20699;-17
2022/09/20 02:44:10;;;;;;;2.95;1.30;;;;;;;;;;5090273;28;20310;-18
2022/09/20 02:46:41;;;;;;;2.05;0.90;;;;;;;;;;5091109;28;20232;-17
2022/09/20 02:49:10;;;;;;;1.90;1.02;;;;;;;;;;5087195;28;20225;-16
2022/09/20 02:51:39;;;;;;;2.17;1.10;;;;;;;;;;5092098;28;20278;-17
2022/09/20 02:54:11;;;;;;;2.00;1.00;;;;;;;;;;5091838;28;20283;-17
2022/09/20 02:56:41;;;;;;;3.13;1.55;;;;;;;;;;5091602;28;20278;-17
2022/09/20 02:59:10;;;;;;;2.50;1.00;;;;;;;;;;5091216;28;20232;-16
2022/09/20 03:01:41;;;;;;;3.85;1.45;;;;;;;;;;5078653;28;20270;-17
2022/09/20 03:04:11;;;;;;;2.42;1.00;;;;;;;;;;5071426;28;20231;-17
2022/09/20 03:06:40;;;;;;;4.18;1.40;;;;;;;;;;5073252;28;20226;-17
2022/09/20 03:09:10;;;;;;;2.90;1.42;;;;;;;;;;5091149;28;20282;-17
2022/09/20 03:11:40;;;;;;;3.05;1.38;;;;;;;;;;5071036;28;20240;-17
2022/09/20 03:14:10;;;;;;;2.67;1.20;;;;;;;;;;5071243;28;20221;-17
2022/09/20 03:16:43;;;;;;;2.88;1.20;;;;;;;;;;5084393;28;20237;-17
2022/09/20 03:19:20;;;;;;;2.13;1.20;;;;;;;;;;5091520;28;20220;-17
2022/09/20 03:21:51;;;;;;;3.88;1.23;;;;;;;;;;5090385;28;20785;-16
2022/09/20 03:24:20;;;;;;;4.85;1.67;;;;;;;;;;5092170;28;20295;-17
2022/09/20 03:26:50;;;;;;;3.95;1.40;;;;;;;;;;5091432;28;20221;-16
2022/09/20 03:29:21;;;;;;;2.60;1.20;;;;;;;;;;5074172;28;20232;-17
2022/09/20 03:31:54;;;;;;;4.85;1.60;;;;;;;;;;5082587;28;20994;-17
2022/09/20 03:34:26;;;;;;;3.97;1.40;;;;;;;;;;5084537;28;20232;-17
2022/09/20 03:36:57;;;;;;;2.25;1.10;;;;;;;;;;5090987;28;20367;-17
2022/09/20 03:39:31;;;;;;;2.50;1.20;;;;;;;;;;5091230;28;20228;-17
2022/09/20 03:42:05;;;;;;;3.30;1.27;;;;;;;;;;5090880;28;20282;-16
2022/09/20 03:44:45;;;;;;;3.13;1.10;;;;;;;;;;5091310;28;20232;-17
2022/09/20 03:47:17;;;;;;;4.60;1.17;;;;;;;;;;5091285;28;20290;-16
2022/09/20 03:49:58;;;;;;;2.45;1.40;;;;;;;;;;5071950;28;20291;-17
2022/09/20 03:52:29;;;;;;;2.35;0.98;;;;;;;;;;5072820;28;20225;-17
2022/09/20 03:55:04;;;;;;;2.10;1.02;;;;;;;;;;5091296;28;20229;-17
2022/09/20 03:57:34;;;;;;;2.10;1.08;;;;;;;;;;5091135;28;20232;-17
2022/09/20 04:00:05;;;;;;;4.50;1.17;;;;;;;;;;5090923;28;20271;-17
2022/09/20 04:02:36;;;;;;;2.95;1.10;;;;;;;;;;5070156;28;20222;-17
2022/09/20 04:05:05;;;;;;;2.97;0.93;;;;;;;;;;5086440;28;21075;-16
2022/09/20 04:07:34;;;;;;;2.78;1.10;;;;;;;;;;5093776;28;20236;-17
2022/09/20 04:10:25;;;;;;;4.97;1.50;;;;;;;;;;5087098;28;20214;-17
2022/09/20 04:12:57;;;;;;;3.10;0.90;;;;;;;;;;5058587;28;20256;-17
2022/09/20 04:15:27;;;;;;;4.00;1.25;;;;;;;;;;5084400;28;20278;-17
2022/09/20 04:17:58;;;;;;;3.70;1.10;;;;;;;;;;5094258;28;20233;-17
2022/09/20 04:20:28;;;;;;;3.13;1.15;;;;;;;;;;5093923;28;20274;-17
2022/09/20 04:22:57;;;;;;;3.75;1.52;;;;;;;;;;5094159;28;20228;-17
2022/09/20 04:25:27;;;;;;;3.20;1.30;;;;;;;;;;5093566;28;20228;-16
2022/09/20 04:27:55;;;;;;;2.45;1.13;;;;;;;;;;5093559;28;20294;-17
2022/09/20 04:30:25;;;;;;;3.22;1.10;;;;;;;;;;5093978;28;20225;-16
2022/09/20 04:32:55;;;;;;;3.47;1.25;;;;;;;;;;5094494;28;20283;-17
2022/09/20 04:38:14;;;;;;;2.72;1.20;;;;;;;;;;5079444;28;20339;-17
2022/09/20 04:40:48;;;;;;;2.42;1.10;;;;;;;;;;5073835;28;20225;-17
2022/09/20 04:43:31;;;;;;;3.53;1.20;;;;;;;;;;5073799;28;20335;-17
2022/09/20 04:46:32;;;;;;;1.83;0.90;;;;;;;;;;5080723;28;20236;-17
2022/09/20 04:49:07;;;;;;;2.63;0.98;;;;;;;;;;4976031;28;20747;-16
2022/09/20 04:52:07;;;;;;;3.30;1.05;;;;;;;;;;4971926;28;20276;-16
2022/09/20 04:54:49;;;;;;;3.13;1.13;;;;;;;;;;4963518;28;20236;-17
2022/09/20 04:57:24;;;;;;;3.97;1.25;;;;;;;;;;4994644;28;20232;-17
2022/09/20 04:59:56;;;;;;;3.22;0.95;;;;;;;;;;5047248;28;20241;-17
2022/09/20 05:02:56;;;;;;;3.78;1.17;;;;;;;;;;5092750;28;21021;-17
2022/09/20 05:05:31;;;;;;;2.17;1.00;;;;;;;;;;5093730;28;20290;-17
2022/09/20 05:08:08;;;;;;;3.35;1.02;;;;;;;;;;5093745;28;20298;-16
2022/09/20 05:10:49;;;;;;;2.78;1.20;;;;;;;;;;5092804;28;20291;-17
2022/09/20 05:13:22;;;;;;;2.85;0.90;;;;;;;;;;5093671;28;20244;-16
2022/09/20 05:15:51;;;;;;;2.20;0.88;;;;;;;;;;5093454;28;20233;-17
2022/09/20 05:18:33;;;;;;;5.25;1.17;;;;;;;;;;5092453;28;20279;-16
2022/09/20 05:21:08;;;;;;;3.65;1.27;;;;;;;;;;5084642;28;20245;-16
2022/09/20 05:23:38;;;;;;;2.45;1.17;;;;;;;;;;5073391;28;20224;-16
2022/09/20 05:26:07;;;;;;;2.33;1.00;;;;;;;;;;5072823;28;20271;-17
2022/09/20 05:28:36;;;;;;;2.67;1.10;;;;;;;;;;5073235;28;20242;-17
2022/09/20 05:31:05;;;;;;;3.42;1.20;;;;;;;;;;5081293;28;20298;-16
2022/09/20 05:33:33;;;;;;;2.58;1.27;;;;;;;;;;5092986;28;20299;-17
2022/09/20 05:36:04;;;;;;;3.30;1.23;;;;;;;;;;5093172;28;20290;-17
2022/09/20 05:38:34;;;;;;;2.88;1.00;;;;;;;;;;5075533;28;21002;-16
2022/09/20 05:41:07;;;;;;;3.75;1.05;;;;;;;;;;5078507;28;20225;-17
2022/09/20 05:43:36;;;;;;;6.07;1.40;;;;;;;;;;5082606;28;20290;-17
2022/09/20 05:46:07;;;;;;;2.10;1.05;;;;;;;;;;5082411;28;20226;-17
2022/09/20 05:48:37;;;;;;;2.58;0.98;;;;;;;;;;5081833;28;20328;-17
2022/09/20 05:51:06;;;;;;;4.68;1.48;;;;;;;;;;5083350;28;20225;-17
2022/09/20 05:53:50;;;;;;;14.18;0.90;;;;;;;;;;5084271;28;20228;-16
2022/09/20 05:56:19;;;;;;;4.32;1.00;;;;;;;;;;5081011;28;20233;-17
2022/09/20 05:58:52;;;;;;;3.28;0.90;;;;;;;;;;5082003;28;20236;-17
2022/09/20 06:01:20;;;;;;;5.35;1.13;;;;;;;;;;5085186;28;20229;-17
2022/09/20 06:03:53;;;;;;;2.75;0.80;;;;;;;;;;5082810;28;20232;-17
2022/09/20 06:06:21;;;;;;;2.67;1.15;;;;;;;;;;5080671;28;20311;-17
2022/09/20 06:08:56;;;;;;;1.80;0.88;;;;;;;;;;5081628;28;20271;-17
2022/09/20 06:11:31;;;;;;;1.63;0.80;;;;;;;;;;5091699;28;20224;-16
2022/09/20 06:14:08;;;;;;;9.20;0.80;;;;;;;;;;5092498;28;20217;-16
2022/09/20 06:16:39;;;;;;;3.70;0.80;;;;;;;;;;5085077;28;20258;-17
2022/09/20 06:19:09;;;;;;;1.88;0.88;;;;;;;;;;5091776;28;20233;-16
2022/09/20 06:21:40;;;;;;;2.17;0.82;;;;;;;;;;5092042;28;20244;-16
2022/09/20 06:24:12;;;;;;;3.25;1.00;;;;;;;;;;5092518;28;20229;-17
2022/09/20 06:26:39;;;;;;;5.97;1.10;;;;;;;;;;5091936;28;20241;-17
2022/09/20 06:29:10;;;;;;;4.90;1.30;;;;;;;;;;5092073;28;20241;-17
2022/09/20 06:31:37;;;;;;;3.38;0.90;;;;;;;;;;5091888;28;20974;-17
2022/09/20 06:34:05;;;;;;;4.05;1.20;;;;;;;;;;5091711;28;20298;-17
2022/09/20 06:42:05;;;;;;;3.28;0.95;;;;;;;;;;5071426;28;20311;-16
2022/09/20 06:44:34;;;;;;;5.60;1.00;;;;;;;;;;5071752;28;20225;-16
2022/09/20 06:47:02;;;;;;;6.85;1.17;;;;;;;;;;5088118;28;20714;-17
2022/09/20 06:49:29;;;;;;;6.78;1.20;;;;;;;;;;5072188;28;20841;-17
2022/09/20 06:51:57;;;;;;;4.88;1.48;;;;;;;;;;5071422;28;20279;-17
2022/09/20 06:54:25;;;;;;;3.47;1.00;;;;;;;;;;5071644;28;20225;-17
2022/09/20 06:56:54;;;;;;;9.00;1.33;;;;;;;;;;5071744;28;20699;-17
2022/09/20 06:59:21;;;;;;;5.95;0.95;;;;;;;;;;5089052;28;20228;-16
2022/09/20 07:01:50;;;;;;;5.18;1.15;;;;;;;;;;5091051;28;20225;-16
2022/09/20 07:04:17;;;;;;;4.55;0.88;;;;;;;;;;5091640;28;20622;-17
2022/09/20 07:06:45;;;;;;;5.53;1.45;;;;;;;;;;5091761;28;20279;-17
2022/09/20 07:09:12;;;;;;;4.15;1.25;;;;;;;;;;5090901;28;20230;-17
2022/09/20 07:11:39;;;;;;;8.05;1.02;;;;;;;;;;5091626;28;20275;-17
2022/09/20 07:14:07;;;;;;;4.13;1.20;;;;;;;;;;5091863;28;20274;-17
2022/09/20 07:16:35;;;;;;;7.28;1.40;;;;;;;;;;5082111;28;20229;-17
2022/09/20 07:19:05;;;;;;;4.50;1.08;;;;;;;;;;5071328;28;20279;-17
2022/09/20 07:21:32;;;;;;;4.57;1.20;;;;;;;;;;5082185;28;20248;-17
2022/09/20 07:24:00;;;;;;;6.65;1.10;;;;;;;;;;5091438;28;20608;-17
2022/09/20 07:26:29;;;;;;;5.85;1.50;;;;;;;;;;5090865;28;20217;-17
2022/09/20 07:28:56;;;;;;;8.25;1.20;;;;;;;;;;5091320;28;20225;-17
2022/09/20 07:31:24;;;;;;;9.93;1.25;;;;;;;;;;5085314;28;20233;-17
2022/09/20 07:33:51;;;;;;;9.90;1.60;;;;;;;;;;5091192;28;20220;-17
2022/09/20 07:36:20;;;;;;;4.90;1.20;;;;;;;;;;5091267;28;20282;-16
2022/09/20 07:38:47;;;;;;;27.25;1.92;;;;;;;;;;5090352;28;20518;-16
2022/09/20 07:41:15;;;;;;;11.15;2.00;;;;;;;;;;5093668;28;20976;-16
2022/09/20 07:43:43;;;;;;;17.20;1.70;;;;;;;;;;5097472;28;20259;-17
2022/09/20 07:46:12;;;;;;;24.25;2.58;;;;;;;;;;5097894;28;20592;-17
2022/09/20 07:48:39;;;;;;;20.00;1.80;;;;;;;;;;5098462;28;20232;-17
2022/09/20 07:51:07;;;;;;;11.65;1.23;;;;;;;;;;5097345;28;20244;-17
2022/09/20 07:53:36;;;;;;;9.80;1.25;;;;;;;;;;5098108;28;20622;-17
2022/09/20 07:56:05;;;;;;;12.02;1.85;;;;;;;;;;5098622;28;20322;-17
2022/09/20 07:58:33;;;;;;;4.00;1.10;;;;;;;;;;5097722;28;20224;-16
2022/09/20 08:01:01;;;;;;;8.80;1.55;;;;;;;;;;5096113;28;20322;-17
2022/09/20 08:03:29;;;;;;;11.55;1.25;;;;;;;;;;5096772;28;20228;-17
2022/09/20 08:05:58;;;;;;;4.47;1.23;;;;;;;;;;5095415;28;20294;-17
2022/09/20 08:08:26;;;;;;;7.53;0.95;;;;;;;;;;5097040;28;20350;-17
2022/09/20 08:11:00;;;;;;;6.07;1.38;;;;;;;;;;5096885;28;20244;-17
2022/09/20 08:13:28;;;;;;;7.32;1.15;;;;;;;;;;5096874;28;20274;-17
2022/09/20 08:16:15;;;;;;;5.05;1.30;;;;;;;;;;5086660;28;20328;-17
2022/09/20 08:18:45;;;;;;;9.52;1.10;;;;;;;;;;5076459;28;20722;-16
2022/09/20 08:21:12;;;;;;;5.45;1.30;;;;;;;;;;5076325;28;20782;-17
2022/09/20 08:23:40;;;;;;;4.03;1.38;;;;;;;;;;5076609;28;20762;-17
2022/09/20 08:26:11;;;;;;;6.47;1.92;;;;;;;;;;5082933;28;20751;-16
2022/09/20 08:28:38;;;;;;;4.15;1.05;;;;;;;;;;5078871;28;20360;-17
2022/09/20 08:31:06;;;;;;;4.50;1.15;;;;;;;;;;5096918;28;20714;-16
2022/09/20 08:33:35;;;;;;;4.65;1.10;;;;;;;;;;5096757;28;20228;-16
2022/09/20 08:36:02;;;;;;;8.40;1.23;;;;;;;;;;5096774;28;20307;-17
2022/09/20 08:38:30;;;;;;;10.70;1.17;;;;;;;;;;5096682;28;20233;-17
2022/09/20 08:41:20;;;;;;;17.55;1.55;;;;;;;;;;5095592;28;20252;-16
2022/09/20 08:43:48;;;;;;;13.57;1.38;;;;;;;;;;5096849;28;20236;-17
2022/09/20 08:46:16;;;;;;;9.52;1.50;;;;;;;;;;5096460;28;20225;-17
2022/09/20 08:48:43;;;;;;;11.15;1.35;;;;;;;;;;5096385;28;20221;-17
2022/09/20 08:51:11;;;;;;;8.07;1.60;;;;;;;;;;5096053;28;20497;-16
2022/09/20 08:53:39;;;;;;;12.10;1.13;;;;;;;;;;5093296;28;21025;-16
2022/09/20 08:56:08;;;;;;;5.90;1.50;;;;;;;;;;5093784;28;20217;-17
2022/09/20 08:58:37;;;;;;;14.27;1.50;;;;;;;;;;5093413;28;20279;-16
2022/09/20 09:01:05;;;;;;;7.00;1.75;;;;;;;;;;5092915;28;20294;-16
2022/09/20 09:03:33;;;;;;;9.45;1.05;;;;;;;;;;5091950;28;20698;-17
2022/09/20 09:06:00;;;;;;;10.57;1.20;;;;;;;;;;5081888;28;20282;-17
2022/09/20 09:08:28;;;;;;;7.15;1.20;;;;;;;;;;5087282;28;20303;-17
2022/09/20 09:10:55;;;;;;;5.47;1.10;;;;;;;;;;5082939;28;20248;-16
2022/09/20 09:13:24;;;;;;;6.28;1.13;;;;;;;;;;5082712;28;20726;-17
2022/09/20 09:15:54;;;;;;;4.80;0.85;;;;;;;;;;5078865;28;20237;-16
2022/09/20 09:18:21;;;;;;;4.18;0.73;;;;;;;;;;5081206;28;20234;-17
2022/09/20 09:20:49;;;;;;;7.88;1.02;;;;;;;;;;5081437;28;20237;-16
2022/09/20 09:23:24;;;;;;;7.43;1.00;;;;;;;;;;5093203;28;20241;-17
2022/09/20 09:25:51;;;;;;;1.77;0.70;;;;;;;;;;5092647;28;20283;-17
2022/09/20 09:28:20;;;;;;;4.85;0.90;;;;;;;;;;5093074;28;20243;-16
2022/09/20 09:30:48;;;;;;;6.90;0.95;;;;;;;;;;5091892;28;20322;-16
2022/09/20 09:33:18;;;;;;;6.28;0.73;;;;;;;;;;5083699;28;20233;-15
2022/09/20 09:35:45;;;;;;;4.03;0.65;;;;;;;;;;5072973;28;20283;-16
2022/09/20 09:38:17;;;;;;;10.32;0.90;;;;;;;;;;5092326;28;20287;-16
2022/09/20 09:40:48;;;;;;;6.40;0.73;;;;;;;;;;5092817;28;20306;-16
2022/09/20 09:43:20;;;;;;;6.55;1.40;;;;;;;;;;5092360;28;20224;-16
2022/09/20 09:45:48;;;;;;;10.98;0.98;;;;;;;;;;5086463;28;20255;-16
2022/09/20 09:48:20;;;;;;;9.30;0.90;;;;;;;;;;5092750;28;20259;-16
2022/09/20 09:50:47;;;;;;;6.50;0.77;;;;;;;;;;5092010;28;21077;-16
2022/09/20 09:53:15;;;;;;;2.50;0.88;;;;;;;;;;5092462;28;20225;-15
2022/09/20 09:55:47;;;;;;;4.50;0.75;;;;;;;;;;5090831;28;20236;-16
2022/09/20 09:58:16;;;;;;;5.55;0.70;;;;;;;;;;5086473;28;20237;-16
2022/09/20 10:00:45;;;;;;;5.85;0.88;;;;;;;;;;5077646;28;20326;-16
2022/09/20 10:03:28;;;;;;;7.38;0.80;;;;;;;;;;5092619;28;20949;-15
2022/09/20 10:06:00;;;;;;;3.13;0.82;;;;;;;;;;5090103;28;20236;-16
2022/09/20 10:08:29;;;;;;;3.13;0.70;;;;;;;;;;5072188;28;20265;-15
2022/09/20 10:10:59;;;;;;;9.88;0.88;;;;;;;;;;5071630;28;20368;-16
2022/09/20 10:13:28;;;;;;;6.90;0.60;;;;;;;;;;5072165;28;20225;-16
2022/09/20 10:15:56;;;;;;;4.95;0.95;;;;;;;;;;5078990;28;20303;-15
2022/09/20 10:18:26;;;;;;;8.93;1.27;;;;;;;;;;5091839;28;20640;-16
2022/09/20 10:21:03;;;;;;;5.55;0.77;;;;;;;;;;5090785;28;20635;-16
2022/09/20 10:23:40;;;;;;;2.97;0.70;;;;;;;;;;5088606;28;20662;-15
2022/09/20 10:26:32;;;;;;;3.45;0.90;;;;;;;;;;5084362;28;20328;-16
2022/09/20 10:29:02;;;;;;;12.65;0.93;;;;;;;;;;5087349;28;20287;-16
2022/09/20 10:31:35;;;;;;;5.28;1.13;;;;;;;;;;5091485;28;20245;-16
2022/09/20 10:34:10;;;;;;;6.15;0.70;;;;;;;;;;5092225;28;20698;-16
2022/09/20 10:36:42;;;;;;;5.13;0.60;;;;;;;;;;5092005;28;20228;-16
2022/09/20 10:39:10;;;;;;;6.03;0.73;;;;;;;;;;5090906;28;20303;-15
2022/09/20 10:44:33;;;;;;;3.83;0.85;;;;;;;;;;5092319;28;20229;-16
2022/09/20 10:47:02;;;;;;;2.03;0.70;;;;;;;;;;5091002;28;21219;-16
2022/09/20 10:49:34;;;;;;;3.00;0.77;;;;;;;;;;5092072;28;20233;-16
2022/09/20 10:52:10;;;;;;;2.53;0.95;;;;;;;;;;5077968;28;20323;-16
2022/09/20 10:54:41;;;;;;;7.88;0.70;;;;;;;;;;5071113;28;20229;-16
2022/09/20 10:57:12;;;;;;;0.90;0.47;;;;;;;;;;5071028;28;20222;-16
2022/09/20 10:59:42;;;;;;;6.43;0.70;;;;;;;;;;5071763;28;20241;-15
2022/09/20 11:02:13;;;;;;;6.93;0.80;;;;;;;;;;5076435;28;20280;-15
2022/09/20 11:04:50;;;;;;;6.63;1.00;;;;;;;;;;5072292;28;20216;-15
2022/09/20 11:07:21;;;;;;;6.00;0.85;;;;;;;;;;5071852;28;20229;-16
2022/09/20 11:09:49;;;;;;;7.25;0.80;;;;;;;;;;5088685;28;20274;-15
2022/09/20 11:12:20;;;;;;;9.05;1.35;;;;;;;;;;5090138;28;20642;-15
2022/09/20 11:14:48;;;;;;;8.75;1.48;;;;;;;;;;5091735;28;20298;-16
2022/09/20 11:17:17;;;;;;;8.13;1.20;;;;;;;;;;5090387;28;20228;-16
2022/09/20 11:19:47;;;;;;;2.88;1.05;;;;;;;;;;5090982;28;20233;-16
2022/09/20 11:22:16;;;;;;;7.93;1.35;;;;;;;;;;5089460;28;20715;-16
2022/09/20 11:24:45;;;;;;;8.73;0.70;;;;;;;;;;5091404;28;20294;-16
2022/09/20 11:27:12;;;;;;;6.45;0.95;;;;;;;;;;5091025;28;20291;-15
2022/09/20 11:29:41;;;;;;;3.45;0.65;;;;;;;;;;5091245;28;20224;-16
2022/09/20 11:32:09;;;;;;;5.32;0.98;;;;;;;;;;5090868;28;20236;-16
2022/09/20 11:34:47;;;;;;;10.77;1.10;;;;;;;;;;5090706;28;20327;-15
2022/09/20 11:37:14;;;;;;;5.47;0.90;;;;;;;;;;5090133;28;20273;-15
2022/09/20 11:39:42;;;;;;;6.07;1.10;;;;;;;;;;5090964;28;20704;-15
2022/09/20 11:42:14;;;;;;;3.95;0.88;;;;;;;;;;5090855;28;20305;-16
2022/09/20 11:44:41;;;;;;;5.70;1.10;;;;;;;;;;5090345;28;20278;-16
2022/09/20 11:47:11;;;;;;;9.77;0.88;;;;;;;;;;5090191;28;20424;-15
2022/09/20 11:49:42;;;;;;;3.50;0.80;;;;;;;;;;5091067;28;20233;-16
2022/09/20 11:52:20;;;;;;;3.03;0.73;;;;;;;;;;5090692;28;20282;-16
2022/09/20 11:55:06;;;;;;;3.03;0.68;;;;;;;;;;5091144;28;20286;-16
2022/09/20 11:57:35;;;;;;;7.53;0.70;;;;;;;;;;5090969;28;20236;-16
2022/09/20 12:00:03;;;;;;;2.75;0.65;;;;;;;;;;5091060;28;20283;-16
2022/09/20 12:02:32;;;;;;;5.93;0.88;;;;;;;;;;5084857;28;20229;-16
2022/09/20 12:05:00;;;;;;;5.00;0.80;;;;;;;;;;5090729;28;20308;-15
2022/09/20 12:07:28;;;;;;;3.97;0.75;;;;;;;;;;5089291;28;20233;-16
2022/09/20 12:09:57;;;;;;;3.13;0.85;;;;;;;;;;5090568;28;20271;-15
2022/09/20 12:12:37;;;;;;;7.07;0.70;;;;;;;;;;5090413;28;20236;-16
2022/09/20 12:15:05;;;;;;;6.38;0.85;;;;;;;;;;5090636;28;20233;-16
2022/09/20 12:17:51;;;;;;;2.78;0.90;;;;;;;;;;5089664;28;20295;-16
2022/09/20 12:20:38;;;;;;;7.82;1.38;;;;;;;;;;5090978;28;20225;-16
2022/09/20 12:23:20;;;;;;;3.22;0.60;;;;;;;;;;5070492;28;20699;-15
2022/09/20 12:25:59;;;;;;;2.13;0.70;;;;;;;;;;5069524;28;20268;-15
2022/09/20 12:28:34;;;;;;;4.07;0.70;;;;;;;;;;5072704;28;20228;-15
2022/09/20 12:31:19;;;;;;;4.43;1.00;;;;;;;;;;5085954;28;20311;-15
2022/09/20 12:33:54;;;;;;;3.17;0.82;;;;;;;;;;5087264;28;20323;-16
2022/09/20 12:36:21;;;;;;;5.30;0.95;;;;;;;;;;5093575;28;20282;-16
2022/09/20 12:38:56;;;;;;;5.18;0.60;;;;;;;;;;5093418;28;20233;-16
2022/09/20 12:41:24;;;;;;;4.47;0.57;;;;;;;;;;5093438;28;20499;-15
2022/09/20 12:43:57;;;;;;;5.97;0.90;;;;;;;;;;5094135;28;20343;-16
2022/09/20 12:46:39;;;;;;;4.45;0.70;;;;;;;;;;5093643;28;20282;-15
2022/09/20 12:52:48;;;;;;;3.95;0.63;;;;;;;;;;5093761;28;21048;-16
2022/09/20 12:54:49;;;;;;;5.47;1.08;;;;;;;;;;5093059;28;21012;-15
2022/09/20 12:57:17;;;;;;;2.83;0.88;;;;;;;;;;5093831;28;20703;-16
2022/09/20 12:59:53;;;;;;;3.05;0.80;;;;;;;;;;5093817;28;20577;-16
2022/09/20 13:02:39;;;;;;;5.25;1.00;;;;;;;;;;5093072;28;20278;-16
2022/09/20 13:05:16;;;;;;;3.33;0.90;;;;;;;;;;5093709;28;20224;-16
2022/09/20 13:07:46;;;;;;;3.92;0.70;;;;;;;;;;5092596;28;20274;-16
2022/09/20 13:10:25;;;;;;;1.83;0.65;;;;;;;;;;5089169;28;20257;-15
2022/09/20 13:12:52;;;;;;;3.30;0.80;;;;;;;;;;5078876;28;20241;-15
2022/09/20 13:15:22;;;;;;;3.88;0.80;;;;;;;;;;5093652;28;20221;-15
2022/09/20 13:17:50;;;;;;;3.80;0.73;;;;;;;;;;5093561;28;20225;-16
2022/09/20 13:20:19;;;;;;;4.18;0.90;;;;;;;;;;5092257;28;20764;-16
2022/09/20 13:22:47;;;;;;;3.35;0.90;;;;;;;;;;5093107;28;20271;-16
2022/09/20 13:25:14;;;;;;;4.05;0.75;;;;;;;;;;5092614;28;20241;-16
2022/09/20 13:27:44;;;;;;;3.63;0.80;;;;;;;;;;5093542;28;20225;-16
2022/09/20 13:30:15;;;;;;;4.32;1.17;;;;;;;;;;5088891;28;20213;-16
2022/09/20 13:32:43;;;;;;;1.88;0.80;;;;;;;;;;5093546;28;20233;-16
2022/09/20 13:35:13;;;;;;;3.08;0.93;;;;;;;;;;5092046;28;20270;-15
2022/09/20 13:37:45;;;;;;;3.90;1.05;;;;;;;;;;5093235;28;21066;-16
2022/09/20 13:40:16;;;;;;;3.60;0.70;;;;;;;;;;5092637;28;20286;-16
2022/09/20 13:42:43;;;;;;;3.80;0.70;;;;;;;;;;5093108;28;20317;-16
2022/09/20 13:45:11;;;;;;;7.65;1.13;;;;;;;;;;5092400;28;20715;-16
2022/09/20 13:47:40;;;;;;;5.43;1.05;;;;;;;;;;5093251;28;20213;-15
2022/09/20 13:50:16;;;;;;;2.38;0.98;;;;;;;;;;5089395;28;20232;-16
2022/09/20 13:52:44;;;;;;;2.58;0.90;;;;;;;;;;5072486;28;20757;-16
2022/09/20 13:55:23;;;;;;;14.70;1.52;;;;;;;;;;5072367;28;20283;-16
2022/09/20 13:57:51;;;;;;;3.75;0.90;;;;;;;;;;5072051;28;20765;-16
2022/09/20 14:00:18;;;;;;;6.68;1.10;;;;;;;;;;5074058;28;20233;-16
2022/09/20 14:02:46;;;;;;;7.75;0.85;;;;;;;;;;5092782;28;20213;-16
2022/09/20 14:05:15;;;;;;;9.15;1.38;;;;;;;;;;5092198;28;20229;-16
2022/09/20 14:07:43;;;;;;;3.10;0.90;;;;;;;;;;5091644;28;20233;-16
2022/09/20 14:10:26;;;;;;;8.85;1.10;;;;;;;;;;5090852;28;20290;-15
2022/09/20 14:12:54;;;;;;;5.63;0.98;;;;;;;;;;5085161;28;20707;-16
2022/09/20 14:15:21;;;;;;;4.85;0.82;;;;;;;;;;5073949;28;20971;-16
2022/09/20 14:17:50;;;;;;;9.27;1.27;;;;;;;;;;5091474;28;20415;-16
2022/09/20 14:20:19;;;;;;;11.20;1.40;;;;;;;;;;5091209;28;20305;-16
2022/09/20 14:22:46;;;;;;;4.15;0.90;;;;;;;;;;5091794;28;20225;-15
2022/09/20 14:25:19;;;;;;;5.78;0.90;;;;;;;;;;5091824;28;20298;-15
2022/09/20 14:27:46;;;;;;;2.33;0.75;;;;;;;;;;5091937;28;20676;-15
2022/09/20 14:30:28;;;;;;;7.53;1.20;;;;;;;;;;5090609;28;20229;-15
2022/09/20 14:32:56;;;;;;;3.53;0.70;;;;;;;;;;5091824;28;20279;-15
2022/09/20 14:35:25;;;;;;;6.18;0.85;;;;;;;;;;5091142;28;20294;-16
2022/09/20 14:37:53;;;;;;;6.50;1.10;;;;;;;;;;5076364;28;21088;-16
2022/09/20 14:40:25;;;;;;;7.57;1.00;;;;;;;;;;5072500;28;21053;-16
2022/09/20 14:42:53;;;;;;;10.75;1.17;;;;;;;;;;5091910;28;20315;-16
2022/09/20 14:45:22;;;;;;;6.13;1.20;;;;;;;;;;5091520;28;20237;-16
2022/09/20 14:47:53;;;;;;;11.35;1.70;;;;;;;;;;5091347;28;20286;-15
2022/09/20 14:50:23;;;;;;;8.70;1.35;;;;;;;;;;5089987;28;20274;-16
2022/09/20 14:53:14;;;;;;;15.32;1.80;;;;;;;;;;5076699;28;20237;-16
2022/09/20 14:55:54;;;;;;;13.48;2.03;;;;;;;;;;5045899;28;20688;-16
2022/09/20 14:58:23;;;;;;;8.05;1.80;;;;;;;;;;5071206;28;20221;-15
2022/09/20 15:00:51;;;;;;;20.80;3.00;;;;;;;;;;5076814;28;20287;-15
2022/09/20 15:03:22;;;;;;;11.85;2.75;;;;;;;;;;5090596;28;20235;-15
2022/09/20 15:05:50;;;;;;;20.77;3.78;;;;;;;;;;5091232;28;20291;-16
2022/09/20 15:08:18;;;;;;;19.30;3.13;;;;;;;;;;5091314;28;20232;-15
2022/09/20 15:10:47;;;;;;;8.50;2.10;;;;;;;;;;5090447;28;20286;-16
2022/09/20 15:13:15;;;;;;;13.10;2.85;;;;;;;;;;5090182;28;21036;-16
2022/09/20 15:15:43;;;;;;;8.52;2.47;;;;;;;;;;5075854;28;20290;-16
2022/09/20 15:18:12;;;;;;;19.65;4.25;;;;;;;;;;5091529;28;20231;-16